Jacobabad Weather



Jacobabad's Current Weather

Temprature 41.7o overcast clouds

overcast clouds

Rain: 0 %

Min Temprature41.7o
Max Temprature41.7o
Humidity9
Wind Speed4.15 m/h
Sun Rise05:40:38
Sun Set19:04:50
Current Time: 08-May-2021 15:22:56
Lat/Lon: 28.281, 68.4388




Jacobabad's Geo Location



Jacobabad's Weather Forecast

Time Overall Temp Min Temp Max Temp Humidity Wind Speed Rain
08-May-2021 (Sat)
17:00:00 overcast clouds 41.400 40.970 41.400 9 0.62 m/h 0 %
20:00:00 overcast clouds 36.850 34.470 36.850 18 8.26 m/h 0 %
23:00:00 broken clouds 32.940 32.940 32.940 24 5.02 m/h 0 %
09-May-2021 (Sun)
02:00:00 scattered clouds 30.840 30.840 30.840 30 1.69 m/h 0 %
05:00:00 broken clouds 29.370 29.370 29.370 31 3.1 m/h 0 %
08:00:00 broken clouds 33.190 33.190 33.190 25 1.55 m/h 0 %
11:00:00 broken clouds 39.160 39.160 39.160 17 1.33 m/h 0 %
14:00:00 clear sky 42.800 42.800 42.800 10 1.95 m/h 0 %
17:00:00 scattered clouds 42.690 42.690 42.690 9 2.62 m/h 0 %
20:00:00 broken clouds 37.080 37.080 37.080 15 4.67 m/h 0 %
23:00:00 scattered clouds 33.920 33.920 33.920 22 3.95 m/h 0 %
10-May-2021 (Mon)
02:00:00 overcast clouds 32.100 32.100 32.100 25 3.35 m/h 0 %
05:00:00 overcast clouds 30.590 30.590 30.590 28 2.38 m/h 0 %
08:00:00 overcast clouds 34.030 34.030 34.030 23 2.04 m/h 0 %
11:00:00 broken clouds 39.910 39.910 39.910 14 1.82 m/h 0 %
14:00:00 clear sky 43.210 43.210 43.210 10 0.92 m/h 0 %
17:00:00 few clouds 43.470 43.470 43.470 9 1.62 m/h 0 %
20:00:00 few clouds 38.910 38.910 38.910 13 2.01 m/h 0 %
23:00:00 clear sky 35.010 35.010 35.010 19 3.08 m/h 0 %
11-May-2021 (Tue)
02:00:00 scattered clouds 32.910 32.910 32.910 23 2.56 m/h 0 %
05:00:00 scattered clouds 31.470 31.470 31.470 27 1.64 m/h 0 %
08:00:00 scattered clouds 35.240 35.240 35.240 22 2.22 m/h 0 %
11:00:00 few clouds 41.150 41.150 41.150 14 3.79 m/h 0 %
14:00:00 clear sky 43.860 43.860 43.860 9 3.33 m/h 0 %
17:00:00 clear sky 43.860 43.860 43.860 8 3.98 m/h 0 %
20:00:00 broken clouds 38.840 38.840 38.840 14 7.08 m/h 0 %
23:00:00 broken clouds 36.230 36.230 36.230 17 4.52 m/h 0 %
12-May-2021 (Wed)
02:00:00 broken clouds 34.050 34.050 34.050 18 3.16 m/h 0 %
05:00:00 scattered clouds 32.340 32.340 32.340 12 2.67 m/h 0 %
08:00:00 clear sky 36.160 36.160 36.160 9 2.89 m/h 0 %
11:00:00 clear sky 41.630 41.630 41.630 6 3.95 m/h 0 %
14:00:00 clear sky 43.340 43.340 43.340 5 2.89 m/h 0 %
17:00:00 clear sky 43.300 43.300 43.300 5 2.86 m/h 0 %
20:00:00 clear sky 38.650 38.650 38.650 6 0.86 m/h 0 %
23:00:00 clear sky 35.580 35.580 35.580 8 4.04 m/h 0 %
13-May-2021 (Thu)
02:00:00 clear sky 30.650 30.650 30.650 29 6.23 m/h 0 %
05:00:00 clear sky 29.250 29.250 29.250 40 6.95 m/h 0 %
08:00:00 clear sky 31.960 31.960 31.960 35 7.52 m/h 0 %
11:00:00 clear sky 37.670 37.670 37.670 22 6.55 m/h 0 %
14:00:00 clear sky 41.280 41.280 41.280 12 4.33 m/h 0 %

Famous Cities (60)